CheckWX is a tool to help pilots better visualize weather data.  It is not intended as a substitute for an official pre-flight weather briefing.

02:24:52 UTC

KRND METAR
Randolph AFB Airport
Universal City, Texas, USA
Current

29 mins ago

KRND 150156Z AUTO 15004KT 10SM FEW070 SCT120 27/19 A2992 RMK AO2 SLP125 T02650186
Observed
Oct-15 @ 01:56 UTC
Wind
  • 150° at 4 KTS
Visibility
10 SM
Flight Rules
VFR
Cloud Levels
  • Few at 7,000' AGL
  • Scattered at 12,000' AGL
Temperature
27°C / 81°F
Dewpoint
19°C / 66°F
Heat Index
28°C / 83°F
Humidity
62%
Altimeter
29.92" Hg
Pressure
1013.22 hPa
Previous

1 hour ago

KRND 150056Z AUTO 15003KT 10SM SCT120 27/19 A2990 RMK AO2 SLP118 T02740192
Observed
Oct-15 @ 00:56 UTC
Wind
  • 150° at 3 KTS
Visibility
10 SM
Flight Rules
VFR
Cloud Levels
  • Scattered at 12,000' AGL
Temperature
27°C / 81°F
Dewpoint
19°C / 66°F
Heat Index
28°C / 83°F
Humidity
62%
Altimeter
29.9" Hg
Pressure
1012.52 hPa
Previous

2 hours ago

KRND 142356Z AUTO 15005KT 10SM BKN120 30/19 A2989 RMK AO2 SLP114 T03010191 10329 20282 55000
Observed
Oct-14 @ 23:56 UTC
Wind
  • 150° at 5 KTS
Visibility
10 SM
Flight Rules
VFR
Cloud Levels
  • Broken at 12,000' AGL
Temperature
30°C / 86°F
Dewpoint
19°C / 66°F
Heat Index
31°C / 88°F
Humidity
52%
Altimeter
29.89" Hg
Pressure
1012.22 hPa